Time;durP1;ratioP1;P1;durP2;ratioP2;P2;SDS_P1;SDS_P2;PMS_P1;PMS_P2;Temp;Humidity;BMP_temperature;BMP_pressure;BME280_temperature;BME280_humidity;BME280_pressure;Samples;Min_cycle;Max_cycle;Signal;HPM_P1;HPM_P2
2023/09/18 18:11:06;;;;;;;6.35;2.97;;;;;;;;;;5105582;27;20957;-69
2023/09/18 18:14:48;;;;;;;7.45;2.65;;;;;;;;;;5099483;28;20744;-70
2023/09/18 18:18:27;;;;;;;6.78;2.58;;;;;;;;;;5099071;28;20048;-69
2023/09/18 18:22:07;;;;;;;11.45;3.13;;;;;;;;;;5099710;28;20035;-72
2023/09/18 18:25:48;;;;;;;4.82;2.30;;;;;;;;;;5096204;28;20043;-68
2023/09/18 18:29:28;;;;;;;5.78;2.00;;;;;;;;;;5099414;28;20526;-70
2023/09/18 18:33:08;;;;;;;5.80;2.78;;;;;;;;;;5097741;28;20036;-69
2023/09/18 18:36:49;;;;;;;7.00;2.50;;;;;;;;;;5094963;28;20078;-68
2023/09/18 18:40:29;;;;;;;6.72;3.17;;;;;;;;;;5097310;28;20130;-65
2023/09/18 18:44:10;;;;;;;5.50;2.13;;;;;;;;;;5090421;28;20458;-68
2023/09/18 18:47:12;;;;;;;6.38;2.70;;;;;;;;;;5091169;28;20141;-67
2023/09/18 18:49:39;;;;;;;6.97;2.72;;;;;;;;;;5098223;28;20048;-67
2023/09/18 18:52:06;;;;;;;5.82;2.80;;;;;;;;;;5093917;28;20129;-66
2023/09/18 18:54:35;;;;;;;10.38;2.50;;;;;;;;;;5089868;28;20104;-67
2023/09/18 18:57:03;;;;;;;4.85;2.50;;;;;;;;;;5092802;28;20040;-68
2023/09/18 18:59:30;;;;;;;7.88;2.80;;;;;;;;;;5093254;28;20105;-68
2023/09/18 19:02:35;;;;;;;11.18;2.80;;;;;;;;;;5086474;28;20132;-67
2023/09/18 19:06:18;;;;;;;7.60;3.10;;;;;;;;;;5084245;28;20346;-72
2023/09/18 19:09:59;;;;;;;8.32;2.80;;;;;;;;;;5092071;28;20488;-70
2023/09/18 19:13:40;;;;;;;4.45;2.47;;;;;;;;;;5086977;28;20499;-69
2023/09/18 19:17:19;;;;;;;9.88;3.30;;;;;;;;;;5090043;28;20055;-70
2023/09/18 19:21:00;;;;;;;8.75;2.70;;;;;;;;;;5081448;28;20113;-70
2023/09/18 19:24:41;;;;;;;8.40;3.17;;;;;;;;;;5080763;28;20059;-69
2023/09/18 19:28:20;;;;;;;11.43;3.67;;;;;;;;;;5082093;28;20164;-71
2023/09/18 19:32:02;;;;;;;12.32;3.45;;;;;;;;;;5078676;28;20122;-72
2023/09/18 19:35:43;;;;;;;9.98;3.80;;;;;;;;;;5077791;28;20044;-71
2023/09/18 19:39:24;;;;;;;7.47;3.63;;;;;;;;;;5074853;28;20511;-71
2023/09/18 19:43:03;;;;;;;8.38;3.00;;;;;;;;;;5074389;28;20060;-69
2023/09/18 19:46:44;;;;;;;9.38;3.03;;;;;;;;;;5085876;28;20547;-71
2023/09/18 19:50:28;;;;;;;9.05;3.25;;;;;;;;;;5085196;28;20040;-70
2023/09/18 19:54:06;;;;;;;8.95;3.47;;;;;;;;;;5076993;28;20097;-71
2023/09/18 19:57:46;;;;;;;7.82;3.05;;;;;;;;;;5075809;28;20126;-70
2023/09/18 20:01:28;;;;;;;6.13;2.25;;;;;;;;;;5080965;28;20320;-69
2023/09/18 20:05:07;;;;;;;6.15;2.70;;;;;;;;;;5074318;28;20044;-69
2023/09/18 20:08:07;;;;;;;6.57;2.50;;;;;;;;;;5072253;28;20044;-68
2023/09/18 20:10:34;;;;;;;5.43;2.50;;;;;;;;;;5079033;28;20146;-71
2023/09/18 20:13:00;;;;;;;7.88;2.90;;;;;;;;;;5075717;28;20282;-70
2023/09/18 20:15:26;;;;;;;14.18;2.97;;;;;;;;;;5071221;28;20062;-69
2023/09/18 20:17:53;;;;;;;7.22;3.00;;;;;;;;;;5071214;28;20028;-71
2023/09/18 20:21:01;;;;;;;8.35;2.85;;;;;;;;;;5070579;28;20051;-70
2023/09/18 20:24:39;;;;;;;14.05;4.22;;;;;;;;;;5075165;28;20049;-69
2023/09/18 20:28:20;;;;;;;9.88;4.05;;;;;;;;;;5066430;28;20035;-69
2023/09/18 20:32:01;;;;;;;6.68;3.10;;;;;;;;;;5072205;28;20075;-71
2023/09/18 20:35:41;;;;;;;10.05;3.78;;;;;;;;;;5075030;28;20177;-70
2023/09/18 20:39:22;;;;;;;9.40;3.90;;;;;;;;;;5065317;28;20127;-71
2023/09/18 20:43:03;;;;;;;11.23;4.03;;;;;;;;;;5073263;28;20040;-70
2023/09/18 20:46:42;;;;;;;8.68;3.50;;;;;;;;;;5078787;28;20056;-71
2023/09/18 20:50:24;;;;;;;10.15;3.92;;;;;;;;;;5079168;28;20043;-68
2023/09/18 20:54:04;;;;;;;7.03;2.90;;;;;;;;;;5070196;28;20040;-69
2023/09/18 20:57:42;;;;;;;8.48;3.20;;;;;;;;;;5076580;28;20053;-71
2023/09/18 21:00:48;;;;;;;7.30;3.05;;;;;;;;;;5078306;28;20062;-71
2023/09/18 21:04:29;;;;;;;10.90;3.20;;;;;;;;;;5073519;28;20078;-70
2023/09/18 21:08:09;;;;;;;11.20;3.17;;;;;;;;;;5073532;28;20059;-69
2023/09/18 21:11:33;;;;;;;8.93;3.45;;;;;;;;;;5082299;28;20123;-70
2023/09/18 21:15:14;;;;;;;11.68;3.42;;;;;;;;;;5077829;28;20080;-73
2023/09/18 21:18:54;;;;;;;12.02;4.28;;;;;;;;;;5076216;28;20063;-70
2023/09/18 21:22:35;;;;;;;10.20;3.15;;;;;;;;;;5081826;28;20492;-68
2023/09/18 21:26:14;;;;;;;9.60;3.55;;;;;;;;;;5078010;28;20052;-72
2023/09/18 21:29:55;;;;;;;8.40;3.33;;;;;;;;;;5082867;28;20376;-70
2023/09/18 21:32:57;;;;;;;11.43;3.72;;;;;;;;;;5080235;28;20040;-70
2023/09/18 21:35:27;;;;;;;10.38;3.83;;;;;;;;;;5092768;28;20048;-69
2023/09/18 21:37:55;;;;;;;10.05;3.90;;;;;;;;;;5089565;28;20101;-70
2023/09/18 21:40:22;;;;;;;10.48;3.55;;;;;;;;;;5074093;28;20151;-70
2023/09/18 21:42:49;;;;;;;8.27;3.45;;;;;;;;;;5077107;28;20052;-69
2023/09/18 21:45:16;;;;;;;7.80;3.80;;;;;;;;;;5080529;28;20044;-68
2023/09/18 21:47:41;;;;;;;7.53;3.30;;;;;;;;;;5077767;28;20044;-69
2023/09/18 21:50:08;;;;;;;9.07;3.30;;;;;;;;;;5081832;28;20051;-70
2023/09/18 21:52:33;;;;;;;10.18;3.15;;;;;;;;;;5066195;28;20059;-71
2023/09/18 21:55:01;;;;;;;7.70;3.28;;;;;;;;;;5080620;28;20044;-69
2023/09/18 21:57:26;;;;;;;8.00;3.10;;;;;;;;;;5076997;28;20139;-71
2023/09/18 21:59:52;;;;;;;10.25;3.17;;;;;;;;;;5076918;28;20485;-70
2023/09/18 22:02:18;;;;;;;5.47;2.65;;;;;;;;;;5079443;28;22166;-68
2023/09/18 22:04:44;;;;;;;6.43;3.13;;;;;;;;;;5083886;28;20052;-69
2023/09/18 22:07:11;;;;;;;9.50;2.78;;;;;;;;;;5076384;28;20052;-70
2023/09/18 22:09:39;;;;;;;5.95;2.70;;;;;;;;;;5074062;28;20229;-69
2023/09/18 22:12:06;;;;;;;6.22;2.85;;;;;;;;;;5077493;28;20138;-69
2023/09/18 22:14:32;;;;;;;7.22;3.15;;;;;;;;;;5082732;28;20047;-68
2023/09/18 22:16:58;;;;;;;6.40;2.53;;;;;;;;;;5079113;28;20056;-69
2023/09/18 22:19:24;;;;;;;5.60;3.00;;;;;;;;;;5079470;28;20048;-68
2023/09/18 22:21:49;;;;;;;5.20;2.65;;;;;;;;;;5076042;28;20078;-70
2023/09/18 22:24:18;;;;;;;8.88;2.67;;;;;;;;;;5079365;28;20048;-69
2023/09/18 22:26:46;;;;;;;6.53;2.70;;;;;;;;;;5083129;28;20056;-70
2023/09/18 22:29:15;;;;;;;8.90;3.13;;;;;;;;;;5080611;28;20048;-69
2023/09/18 22:31:41;;;;;;;5.65;2.90;;;;;;;;;;5080341;28;20079;-69
2023/09/18 22:34:10;;;;;;;5.57;2.60;;;;;;;;;;5080195;28;20504;-68
2023/09/18 22:36:36;;;;;;;7.97;2.95;;;;;;;;;;5082561;28;20123;-68
2023/09/18 22:39:31;;;;;;;7.25;3.10;;;;;;;;;;5083271;28;20109;-69
2023/09/18 22:41:58;;;;;;;9.27;3.30;;;;;;;;;;5075231;28;20068;-70
2023/09/18 22:45:02;;;;;;;7.95;2.92;;;;;;;;;;5079731;28;20058;-70
2023/09/18 22:48:05;;;;;;;5.47;2.83;;;;;;;;;;5073405;28;20080;-68
2023/09/18 22:51:08;;;;;;;7.88;2.83;;;;;;;;;;5072734;28;20342;-70
2023/09/18 22:53:35;;;;;;;6.32;2.53;;;;;;;;;;5075793;28;20045;-68
2023/09/18 22:56:03;;;;;;;7.90;2.88;;;;;;;;;;5078633;28;20385;-69
2023/09/18 22:58:30;;;;;;;5.95;3.03;;;;;;;;;;5078928;28;20040;-69
2023/09/18 23:01:02;;;;;;;5.07;2.53;;;;;;;;;;5083354;28;20048;-67
2023/09/18 23:03:29;;;;;;;9.45;3.47;;;;;;;;;;5079846;28;20059;-69
2023/09/18 23:05:56;;;;;;;8.00;2.90;;;;;;;;;;5080794;28;20101;-69
2023/09/18 23:08:23;;;;;;;9.75;3.33;;;;;;;;;;5078956;28;20068;-68
2023/09/18 23:10:49;;;;;;;7.97;2.85;;;;;;;;;;5076240;28;20044;-68
2023/09/18 23:13:15;;;;;;;7.97;2.70;;;;;;;;;;5079155;28;20106;-67
2023/09/18 23:15:43;;;;;;;7.45;2.80;;;;;;;;;;5079977;28;20111;-68
2023/09/18 23:18:09;;;;;;;7.50;2.45;;;;;;;;;;5081998;28;20058;-67
2023/09/18 23:20:35;;;;;;;6.47;2.70;;;;;;;;;;5084598;28;20056;-68
2023/09/18 23:23:02;;;;;;;7.57;2.53;;;;;;;;;;5075443;28;20492;-68
2023/09/18 23:25:33;;;;;;;9.82;3.00;;;;;;;;;;5086301;28;20051;-67
2023/09/18 23:27:59;;;;;;;9.02;3.00;;;;;;;;;;5079075;28;20052;-68
2023/09/18 23:30:27;;;;;;;10.30;2.80;;;;;;;;;;5077100;28;20048;-71
2023/09/18 23:33:01;;;;;;;7.50;2.58;;;;;;;;;;5075923;28;20101;-67
2023/09/18 23:35:32;;;;;;;8.95;2.92;;;;;;;;;;5083081;28;20060;-67
2023/09/18 23:38:04;;;;;;;8.43;3.03;;;;;;;;;;5075766;28;20048;-68
2023/09/18 23:40:32;;;;;;;11.13;3.65;;;;;;;;;;5079155;28;20052;-68
2023/09/18 23:43:07;;;;;;;8.43;3.38;;;;;;;;;;5083890;28;20121;-68
2023/09/18 23:45:44;;;;;;;6.55;3.05;;;;;;;;;;5077379;28;20045;-68
2023/09/18 23:48:11;;;;;;;7.25;3.00;;;;;;;;;;5079077;28;20067;-67
2023/09/18 23:50:39;;;;;;;8.30;3.15;;;;;;;;;;5077034;28;20102;-68
2023/09/18 23:53:08;;;;;;;8.30;3.67;;;;;;;;;;5075626;28;20105;-66
2023/09/18 23:55:37;;;;;;;8.73;3.38;;;;;;;;;;5084443;28;20110;-67
2023/09/18 23:58:08;;;;;;;6.90;3.65;;;;;;;;;;5083176;28;20330;-69
